Terminal Aerodrome Forecast
Issued by NWS Cleveland, OH

Home | Current Version | Previous Version | Text Only | Print | Product List | Glossary On
Versions: 1 2 3 4 5 6 7 8 9 10 11 12 13 14 15 16 17 18 19 20 21 22 23 24
000
FTUS41 KCLE 292352
TAFMFD
TAF
KMFD 292352Z 3000/3024 11006KT 5SM BR VCSH SCT007 OVC015
      TEMPO 3000/3004 2SM BR OVC007
     FM300400 14007KT 3SM BR OVC007
     FM300600 20005KT 3SM BR OVC005
     FM301500 22008KT P6SM OVC012
     FM301800 22008KT P6SM -SHRA OVC025
      TEMPO 3018/3022 3SM TSRA OVC015CB=

USA.gov is the U.S. government's official web portal to all federal, state and local government web resources and services.